Time;durP1;ratioP1;P1;durP2;ratioP2;P2;SDS_P1;SDS_P2;PMS_P1;PMS_P2;Temp;Humidity;BMP_temperature;BMP_pressure;BME280_temperature;BME280_humidity;BME280_pressure;Samples;Min_cycle;Max_cycle;Signal;HPM_P1;HPM_P2
2022/09/28 00:01:29;;;;;;;22.75;3.28;;;40.30;30.00;;;;;;5052908;28;20032;-61
2022/09/28 00:03:57;;;;;;;11.57;2.45;;;40.20;29.70;;;;;;5054046;28;20045;-62
2022/09/28 00:06:25;;;;;;;28.40;2.83;;;40.20;31.20;;;;;;5054079;28;20492;-63
2022/09/28 00:08:52;;;;;;;23.17;2.67;;;40.20;30.20;;;;;;5059389;28;20036;-60
2022/09/28 00:11:20;;;;;;;19.52;2.70;;;40.10;30.00;;;;;;5054607;28;20032;-60
2022/09/28 00:13:52;;;;;;;19.67;2.60;;;40.10;31.00;;;;;;5055455;28;20021;-63
2022/09/28 00:16:22;;;;;;;21.23;2.92;;;40.00;30.00;;;;;;5054296;28;20154;-62
2022/09/28 00:18:49;;;;;;;22.15;2.58;;;39.90;30.40;;;;;;5056620;28;20656;-61
2022/09/28 00:21:20;;;;;;;15.05;2.25;;;39.80;31.60;;;;;;5054080;28;20076;-62
2022/09/28 00:26:33;;;;;;;14.93;2.40;;;39.60;31.10;;;;;;5052850;28;20031;-63
2022/09/28 00:29:01;;;;;;;16.95;1.98;;;39.60;31.10;;;;;;5052856;28;20029;-62
2022/09/28 00:31:31;;;;;;;18.50;3.28;;;39.60;31.70;;;;;;5050387;28;20022;-61
2022/09/28 00:33:59;;;;;;;14.38;2.63;;;39.50;32.90;;;;;;5052500;28;20025;-61
2022/09/28 00:36:27;;;;;;;17.42;2.30;;;39.50;31.60;;;;;;5051661;28;20067;-62
2022/09/28 00:38:55;;;;;;;15.70;2.67;;;39.40;31.40;;;;;;5051527;28;20029;-63
2022/09/28 00:41:23;;;;;;;12.15;2.20;;;39.30;32.60;;;;;;5046945;28;20036;-62
2022/09/28 00:43:49;;;;;;;19.50;2.00;;;39.30;32.70;;;;;;5052400;28;20486;-63
2022/09/28 00:46:26;;;;;;;20.27;2.58;;;39.20;31.00;;;;;;5048763;28;20438;-62
2022/09/28 00:49:06;;;;;;;31.27;2.92;;;39.20;32.40;;;;;;5048688;28;20029;-61
2022/09/28 00:51:35;;;;;;;29.85;2.95;;;39.10;31.70;;;;;;5056487;28;20028;-63
2022/09/28 00:54:05;;;;;;;15.30;2.42;;;38.90;33.00;;;;;;5052427;28;20108;-63
2022/09/28 00:56:34;;;;;;;14.43;2.90;;;38.80;32.70;;;;;;5046864;28;20017;-62
2022/09/28 00:59:03;;;;;;;14.57;2.53;;;38.80;33.80;;;;;;5049626;28;20029;-61
2022/09/28 01:01:30;;;;;;;27.27;3.20;;;38.70;33.90;;;;;;5049213;28;20071;-60
2022/09/28 01:04:02;;;;;;;24.75;2.80;;;38.60;34.10;;;;;;5051700;28;20028;-61
2022/09/28 01:06:32;;;;;;;25.80;3.08;;;38.40;33.90;;;;;;5052819;28;20029;-61
2022/09/28 01:09:02;;;;;;;26.60;3.67;;;38.30;34.00;;;;;;5051131;28;20020;-61
2022/09/28 01:11:32;;;;;;;25.95;3.15;;;38.30;34.10;;;;;;5056031;28;20084;-63
2022/09/28 01:14:00;;;;;;;20.60;3.10;;;38.20;33.70;;;;;;5057599;28;20020;-60
2022/09/28 01:17:02;;;;;;;28.83;3.05;;;38.10;33.50;;;;;;5057310;28;20108;-63
2022/09/28 01:20:04;;;;;;;20.42;2.83;;;38.00;34.30;;;;;;5051825;28;21835;-62
2022/09/28 01:22:33;;;;;;;27.10;3.42;;;37.90;33.40;;;;;;5052805;28;20029;-61
2022/09/28 01:25:24;;;;;;;23.55;3.22;;;37.90;33.30;;;;;;5057099;28;20036;-61
2022/09/28 01:28:13;;;;;;;24.35;3.33;;;37.90;34.70;;;;;;5059338;28;20029;-61
2022/09/28 01:30:58;;;;;;;30.45;3.55;;;37.80;34.70;;;;;;5053127;28;20091;-61
2022/09/28 01:33:34;;;;;;;38.88;4.47;;;37.70;34.50;;;;;;5056702;28;20021;-62
2022/09/28 01:36:09;;;;;;;;;;;37.60;33.80;;;;;;5056753;28;20036;-62
2022/09/28 01:39:01;;;;;;;53.38;5.13;;;37.60;34.00;;;;;;5057008;28;19958;-63
2022/09/28 01:41:30;;;;;;;50.75;5.32;;;37.50;34.50;;;;;;5060626;28;20024;-63
2022/09/28 01:44:01;;;;;;;35.67;4.90;;;37.40;34.40;;;;;;5057538;28;20033;-62
2022/09/28 01:46:44;;;;;;;28.13;4.18;;;37.40;34.50;;;;;;5055023;28;20049;-61
2022/09/28 01:49:19;;;;;;;51.92;5.13;;;37.30;34.80;;;;;;5057199;28;20028;-62
2022/09/28 01:52:02;;;;;;;46.95;5.40;;;37.20;34.60;;;;;;5058897;28;20066;-62
2022/09/28 01:54:41;;;;;;;51.72;5.93;;;37.20;35.10;;;;;;5056526;28;20029;-62
2022/09/28 01:57:22;;;;;;;47.30;7.22;;;37.10;35.70;;;;;;5051164;28;20086;-62
2022/09/28 02:00:02;;;;;;;79.97;7.95;;;37.10;35.30;;;;;;5057489;28;20021;-63
2022/09/28 02:02:41;;;;;;;70.15;5.97;;;37.00;36.60;;;;;;5057836;28;20029;-62
2022/09/28 02:05:14;;;;;;;59.90;6.47;;;36.90;35.50;;;;;;5060787;28;20013;-60
2022/09/28 02:07:54;;;;;;;41.55;6.28;;;36.80;35.60;;;;;;5056012;28;20028;-61
2022/09/28 02:10:26;;;;;;;47.88;5.43;;;36.80;36.50;;;;;;5061798;28;20013;-62
2022/09/28 02:13:13;;;;;;;61.80;6.85;;;36.70;36.40;;;;;;5060791;28;20293;-61
2022/09/28 02:16:13;;;;;;;50.25;6.55;;;36.60;37.10;;;;;;5044906;28;20041;-61
2022/09/28 02:18:40;;;;;;;61.92;6.65;;;36.60;37.40;;;;;;5062057;28;20037;-61
2022/09/28 02:21:15;;;;;;;46.65;6.50;;;36.50;37.50;;;;;;5059177;28;20056;-62
2022/09/28 02:23:55;;;;;;;57.90;7.00;;;36.40;37.70;;;;;;5059860;28;20507;-63
2022/09/28 02:26:29;;;;;;;50.67;5.75;;;36.30;37.30;;;;;;5052900;28;20466;-64
2022/09/28 02:28:56;;;;;;;46.97;7.03;;;36.30;37.50;;;;;;5056715;28;20041;-62
2022/09/28 02:31:22;;;;;;;44.65;6.63;;;36.20;38.20;;;;;;5058751;28;20016;-62
2022/09/28 02:33:50;;;;;;;67.22;7.32;;;36.10;38.20;;;;;;5050899;28;20021;-61
2022/09/28 02:36:17;;;;;;;45.50;6.40;;;36.00;38.80;;;;;;5059442;28;20029;-63
2022/09/28 02:38:43;;;;;;;61.45;7.50;;;35.90;38.70;;;;;;5058534;28;20028;-62
2022/09/28 02:41:12;;;;;;;53.80;6.88;;;35.90;38.60;;;;;;5048786;28;20540;-61
2022/09/28 02:43:58;;;;;;;60.97;7.50;;;35.80;38.00;;;;;;5054083;28;20021;-62
2022/09/28 02:46:27;;;;;;;72.72;7.30;;;35.80;38.30;;;;;;5057368;28;20039;-62
2022/09/28 02:49:24;;;;;;;47.75;6.40;;;35.80;39.00;;;;;;5055459;28;20473;-62
2022/09/28 02:51:56;;;;;;;53.53;6.80;;;35.70;38.00;;;;;;5015671;28;20123;-64
2022/09/28 02:54:47;;;;;;;77.70;7.55;;;35.70;38.10;;;;;;5057060;28;20498;-62
2022/09/28 02:57:47;;;;;;;69.03;7.10;;;35.60;38.90;;;;;;5052416;28;20033;-62
2022/09/28 03:00:21;;;;;;;49.83;6.82;;;35.60;38.20;;;;;;5045980;28;20494;-62
2022/09/28 03:02:51;;;;;;;56.47;6.95;;;35.50;37.90;;;;;;5048496;28;20037;-63
2022/09/28 03:05:37;;;;;;;58.05;7.05;;;35.50;38.60;;;;;;5049538;28;20458;-62
2022/09/28 03:08:31;;;;;;;48.92;7.00;;;35.50;39.10;;;;;;5053757;28;20020;-61
2022/09/28 03:11:11;;;;;;;46.63;6.78;;;35.40;39.40;;;;;;5053114;28;20020;-63
2022/09/28 03:13:38;;;;;;;70.35;7.53;;;35.30;39.70;;;;;;5056543;28;20024;-63
2022/09/28 03:16:14;;;;;;;56.28;7.63;;;35.20;39.70;;;;;;5051810;28;20033;-62
2022/09/28 03:18:41;;;;;;;51.90;7.13;;;35.20;39.90;;;;;;5049745;28;20513;-63
2022/09/28 03:21:12;;;;;;;52.13;6.78;;;35.20;40.00;;;;;;5053303;28;20041;-61
2022/09/28 03:23:39;;;;;;;67.10;6.78;;;35.10;39.90;;;;;;5050223;28;20036;-63
2022/09/28 03:26:09;;;;;;;44.85;7.30;;;35.00;40.50;;;;;;5050218;28;20025;-62
2022/09/28 03:28:36;;;;;;;57.28;7.40;;;35.00;40.00;;;;;;5047817;28;20135;-61
2022/09/28 03:31:02;;;;;;;51.40;8.45;;;34.90;40.00;;;;;;5049680;28;20024;-61
2022/09/28 03:33:29;;;;;;;39.33;6.47;;;34.90;40.20;;;;;;5051523;28;20041;-62
2022/09/28 03:35:55;;;;;;;52.67;6.70;;;34.90;40.60;;;;;;5050051;28;20028;-62
2022/09/28 03:38:22;;;;;;;34.83;6.25;;;34.90;40.50;;;;;;5052680;28;20481;-63
2022/09/28 03:40:56;;;;;;;57.95;7.18;;;34.80;39.60;;;;;;5049431;28;20098;-61
2022/09/28 03:43:23;;;;;;;36.50;7.05;;;34.70;39.50;;;;;;5049056;28;20016;-62
2022/09/28 03:45:57;;;;;;;30.15;6.95;;;34.70;39.50;;;;;;5051674;28;20440;-63
2022/09/28 03:48:26;;;;;;;45.30;6.55;;;34.70;40.00;;;;;;5049683;28;20036;-62
2022/09/28 03:50:54;;;;;;;53.20;6.07;;;34.60;39.40;;;;;;5056770;28;20473;-61
2022/09/28 03:53:21;;;;;;;50.00;7.30;;;34.60;40.10;;;;;;5052726;28;20112;-64
2022/09/28 03:55:49;;;;;;;70.20;7.63;;;34.50;40.10;;;;;;5055604;28;20044;-62
2022/09/28 03:58:16;;;;;;;54.25;7.20;;;34.50;40.20;;;;;;5049615;28;20024;-64
2022/09/28 04:00:43;;;;;;;65.47;8.80;;;34.50;40.30;;;;;;5046197;28;20029;-61
2022/09/28 04:03:09;;;;;;;60.92;7.38;;;34.50;40.50;;;;;;5049533;28;20017;-62
2022/09/28 04:05:35;;;;;;;62.75;7.55;;;34.40;40.70;;;;;;5049533;28;20025;-63
2022/09/28 04:08:02;;;;;;;62.30;7.25;;;34.40;41.80;;;;;;5049450;28;20447;-62
2022/09/28 04:10:28;;;;;;;60.78;7.68;;;34.30;41.20;;;;;;5049446;28;20021;-61
2022/09/28 04:12:56;;;;;;;58.90;7.43;;;34.30;41.30;;;;;;5054862;28;20485;-62
2022/09/28 04:15:25;;;;;;;57.20;7.53;;;34.20;41.40;;;;;;5049483;28;20497;-61
2022/09/28 04:17:52;;;;;;;39.45;6.95;;;34.20;41.50;;;;;;5049982;28;20029;-62
2022/09/28 04:20:18;;;;;;;44.30;6.47;;;34.20;41.90;;;;;;5050647;28;20036;-63
2022/09/28 04:22:45;;;;;;;56.05;7.88;;;34.10;42.00;;;;;;5049581;28;20179;-61
2022/09/28 04:25:11;;;;;;;48.30;6.95;;;34.10;42.50;;;;;;5049336;28;20033;-62
2022/09/28 04:30:23;;;;;;;61.05;7.97;;;34.00;43.10;;;;;;5054346;28;20102;-63
2022/09/28 04:32:49;;;;;;;51.47;7.45;;;34.00;43.10;;;;;;5048751;28;20056;-61
2022/09/28 04:35:16;;;;;;;51.92;8.63;;;34.00;43.60;;;;;;5049349;28;20128;-62
2022/09/28 04:37:42;;;;;;;61.65;10.25;;;33.90;43.80;;;;;;5050851;28;20017;-64
2022/09/28 04:40:09;;;;;;;59.72;10.85;;;33.80;43.80;;;;;;5048632;28;20025;-63
2022/09/28 04:42:36;;;;;;;71.88;11.98;;;33.80;45.40;;;;;;5049318;28;20032;-64
2022/09/28 04:45:03;;;;;;;51.53;11.90;;;33.80;45.10;;;;;;5048823;28;20480;-63
2022/09/28 04:47:30;;;;;;;64.10;12.68;;;33.70;44.90;;;;;;5049205;28;21652;-63
2022/09/28 04:49:58;;;;;;;46.08;12.45;;;33.70;44.40;;;;;;5052090;28;20072;-63
2022/09/28 04:52:26;;;;;;;77.25;13.05;;;33.60;44.20;;;;;;5051903;28;20032;-64
2022/09/28 04:54:52;;;;;;;84.13;12.20;;;33.60;44.70;;;;;;5049516;28;20371;-59
2022/09/28 04:57:18;;;;;;;55.58;11.43;;;33.60;44.40;;;;;;5051176;28;20108;-60
2022/09/28 04:59:45;;;;;;;66.55;10.90;;;33.50;45.40;;;;;;5048631;28;20036;-63
2022/09/28 05:02:13;;;;;;;45.33;9.63;;;33.50;45.40;;;;;;5043404;28;20540;-62
2022/09/28 05:04:40;;;;;;;53.03;9.73;;;33.40;45.40;;;;;;5047964;28;20059;-64
2022/09/28 05:07:06;;;;;;;55.80;10.77;;;33.40;45.40;;;;;;5048063;28;20071;-63
2022/09/28 05:09:32;;;;;;;54.03;9.25;;;33.40;45.00;;;;;;5046989;28;20056;-64
2022/09/28 05:11:59;;;;;;;55.38;8.75;;;33.30;45.70;;;;;;5051317;28;20050;-63
2022/09/28 05:14:25;;;;;;;45.72;8.68;;;33.30;45.80;;;;;;5051406;28;20536;-62
2022/09/28 05:16:52;;;;;;;57.53;9.35;;;33.20;45.80;;;;;;5049936;28;20026;-63
2022/09/28 05:19:18;;;;;;;53.85;9.88;;;33.20;45.50;;;;;;5050302;28;20028;-62
2022/09/28 05:21:45;;;;;;;57.67;8.57;;;33.20;45.40;;;;;;5052342;28;20032;-62
2022/09/28 05:24:12;;;;;;;39.08;7.75;;;33.10;45.10;;;;;;5054170;28;20025;-62
2022/09/28 05:26:38;;;;;;;62.67;10.73;;;33.10;45.10;;;;;;5055686;28;20108;-62
2022/09/28 05:29:05;;;;;;;55.80;9.15;;;33.10;45.50;;;;;;5052099;28;20064;-65
2022/09/28 05:31:31;;;;;;;45.28;8.95;;;33.10;46.20;;;;;;5050318;28;20017;-66
2022/09/28 05:33:58;;;;;;;49.45;10.00;;;33.00;46.70;;;;;;5047826;28;20498;-62
2022/09/28 05:36:29;;;;;;;67.15;14.98;;;33.60;46.00;;;;;;5047770;28;20028;-63
2022/09/28 05:38:56;;;;;;;92.18;43.35;;;34.00;44.30;;;;;;5057582;28;20079;-63
2022/09/28 05:41:22;;;;;;;84.80;39.08;;;34.40;43.70;;;;;;5059947;28;20029;-61
2022/09/28 05:43:50;;;;;;;68.00;12.65;;;34.60;43.30;;;;;;5049677;28;20107;-63
2022/09/28 05:46:18;;;;;;;58.53;10.68;;;34.70;43.00;;;;;;5049519;28;20055;-66
2022/09/28 05:48:45;;;;;;;54.10;10.80;;;34.80;42.80;;;;;;5046997;28;20138;-61
2022/09/28 05:51:11;;;;;;;72.82;11.07;;;34.90;42.90;;;;;;5049057;28;20431;-62
2022/09/28 05:53:38;;;;;;;59.10;9.57;;;34.90;43.20;;;;;;5052086;28;20146;-67
2022/09/28 05:56:05;;;;;;;49.03;9.15;;;35.00;43.10;;;;;;5055854;28;20025;-61
2022/09/28 05:58:31;;;;;;;42.35;9.05;;;34.90;43.10;;;;;;5050880;28;20494;-61
2022/09/28 06:00:58;;;;;;;61.45;9.02;;;34.90;43.30;;;;;;5052837;28;20025;-64
2022/09/28 06:03:24;;;;;;;39.78;8.88;;;34.90;43.60;;;;;;5047566;28;20021;-61
2022/09/28 06:05:51;;;;;;;63.25;9.95;;;34.90;43.20;;;;;;5050212;28;20024;-60
2022/09/28 06:08:20;;;;;;;50.05;9.93;;;34.90;43.30;;;;;;5055286;28;20026;-63
2022/09/28 06:10:46;;;;;;;48.33;8.85;;;34.80;43.00;;;;;;5053337;28;20458;-61
2022/09/28 06:13:14;;;;;;;41.97;9.02;;;34.90;44.40;;;;;;5053979;28;20020;-62
2022/09/28 06:15:43;;;;;;;55.25;9.55;;;34.90;43.00;;;;;;5051548;28;20028;-62
2022/09/28 06:18:14;;;;;;;34.70;9.70;;;34.80;43.30;;;;;;5050561;28;20032;-62
2022/09/28 06:20:43;;;;;;;35.28;8.23;;;34.70;43.90;;;;;;5055673;28;20033;-62
2022/09/28 06:23:11;;;;;;;44.88;9.90;;;34.60;43.40;;;;;;5053536;28;20027;-61
2022/09/28 06:25:38;;;;;;;55.63;9.98;;;34.60;44.00;;;;;;5053024;28;20069;-64
2022/09/28 06:28:08;;;;;;;42.95;9.90;;;34.60;43.20;;;;;;5051263;28;20069;-62
2022/09/28 06:30:37;;;;;;;44.83;9.48;;;34.70;43.80;;;;;;5032972;28;20029;-63
2022/09/28 06:33:05;;;;;;;49.20;9.30;;;34.70;44.10;;;;;;5040185;28;20216;-60
2022/09/28 06:35:32;;;;;;;42.67;8.88;;;34.60;43.50;;;;;;5030951;28;20485;-60
2022/09/28 06:38:00;;;;;;;52.42;9.70;;;34.60;43.70;;;;;;5041641;28;20036;-63
2022/09/28 06:40:28;;;;;;;44.83;8.57;;;34.60;43.20;;;;;;5034247;28;20395;-61
2022/09/28 06:43:08;;;;;;;49.78;8.95;;;34.50;43.20;;;;;;5030801;28;20021;-61
2022/09/28 06:45:35;;;;;;;46.25;9.35;;;34.50;43.80;;;;;;5039522;28;20064;-62
2022/09/28 06:48:03;;;;;;;40.97;8.48;;;34.40;44.20;;;;;;5033642;28;20033;-62
2022/09/28 06:50:36;;;;;;;52.08;8.60;;;34.30;44.20;;;;;;5033299;28;20045;-61
2022/09/28 06:53:05;;;;;;;30.10;6.05;;;34.20;44.70;;;;;;5032949;28;20056;-61
2022/09/28 06:55:32;;;;;;;36.42;6.15;;;34.10;43.70;;;;;;5039084;28;20026;-62
2022/09/28 06:58:06;;;;;;;38.83;5.82;;;34.00;43.70;;;;;;5031082;28;20062;-60
2022/09/28 07:00:37;;;;;;;27.50;5.82;;;34.10;44.30;;;;;;5030141;28;20080;-61
2022/09/28 07:03:12;;;;;;;35.67;5.65;;;34.10;44.60;;;;;;5026777;28;20079;-60
2022/09/28 07:05:51;;;;;;;28.73;4.80;;;34.00;44.30;;;;;;5029546;28;20434;-61
2022/09/28 07:08:19;;;;;;;29.33;5.38;;;34.00;45.40;;;;;;5036729;28;20541;-62
2022/09/28 07:10:47;;;;;;;33.15;5.55;;;33.90;44.80;;;;;;5032593;28;20033;-62
2022/09/28 07:13:16;;;;;;;38.20;5.05;;;33.90;44.50;;;;;;5036021;28;20060;-62
2022/09/28 07:15:43;;;;;;;41.35;5.10;;;33.80;44.50;;;;;;5041355;28;20060;-62
2022/09/28 07:18:11;;;;;;;37.15;5.00;;;33.80;44.70;;;;;;5033404;28;20040;-62
2022/09/28 07:20:37;;;;;;;32.17;4.20;;;33.70;45.40;;;;;;5029642;28;20030;-62
2022/09/28 07:23:06;;;;;;;22.17;4.38;;;33.60;45.60;;;;;;5030102;28;20394;-61
2022/09/28 07:25:35;;;;;;;35.35;5.05;;;33.60;45.90;;;;;;5029983;28;20409;-63
2022/09/28 07:28:03;;;;;;;32.15;5.55;;;33.50;45.80;;;;;;5042368;28;20021;-62
2022/09/28 07:30:32;;;;;;;23.85;5.15;;;33.50;45.80;;;;;;5057133;28;20040;-61
2022/09/28 07:33:00;;;;;;;27.70;4.45;;;33.40;46.00;;;;;;5049374;28;20025;-63
2022/09/28 07:35:27;;;;;;;29.67;4.20;;;33.30;46.00;;;;;;5053500;28;20016;-60
2022/09/28 07:38:04;;;;;;;29.35;4.03;;;33.30;45.90;;;;;;5051090;28;20028;-60
2022/09/28 07:43:20;;;;;;;24.52;4.28;;;33.20;46.90;;;;;;5050255;28;20036;-61
2022/09/28 07:45:52;;;;;;;22.35;3.80;;;33.20;46.70;;;;;;5051303;28;20025;-63
2022/09/28 07:48:20;;;;;;;17.17;3.25;;;33.20;46.60;;;;;;5050266;28;20037;-61
2022/09/28 07:50:51;;;;;;;22.58;3.63;;;33.10;47.00;;;;;;5053380;28;20097;-61
2022/09/28 07:53:23;;;;;;;24.45;4.40;;;33.00;46.90;;;;;;5050518;28;20025;-61
2022/09/28 07:56:03;;;;;;;33.58;6.55;;;33.00;46.80;;;;;;5052015;28;20104;-61
2022/09/28 07:58:31;;;;;;;22.92;5.25;;;32.90;47.30;;;;;;5049514;28;20067;-62
2022/09/28 08:00:59;;;;;;;23.17;3.72;;;32.90;47.20;;;;;;5049018;28;21542;-61
2022/09/28 08:03:26;;;;;;;22.48;3.08;;;32.80;46.90;;;;;;5046996;28;20036;-63
2022/09/28 08:06:05;;;;;;;18.55;3.10;;;32.80;47.10;;;;;;5044972;28;20070;-62
2022/09/28 08:08:35;;;;;;;23.05;3.97;;;32.70;47.40;;;;;;5048325;28;20028;-61
2022/09/28 08:11:02;;;;;;;25.58;3.70;;;32.70;47.40;;;;;;5049600;28;20020;-60
2022/09/28 08:13:29;;;;;;;26.10;3.88;;;32.70;47.70;;;;;;5047925;28;20017;-63
2022/09/28 08:16:00;;;;;;;25.50;4.40;;;32.60;47.30;;;;;;5049296;28;20078;-62
2022/09/28 08:18:27;;;;;;;16.60;3.80;;;32.70;47.70;;;;;;5056523;28;20033;-62
2022/09/28 08:23:38;;;;;;;19.88;3.75;;;32.50;48.00;;;;;;5063659;28;20100;-63
2022/09/28 08:26:05;;;;;;;22.15;3.97;;;32.50;48.30;;;;;;5049984;28;20167;-63
2022/09/28 08:28:36;;;;;;;31.08;5.38;;;32.50;48.40;;;;;;5052267;28;20071;-60
2022/09/28 08:31:06;;;;;;;25.90;5.75;;;32.40;48.40;;;;;;5057858;28;20029;-61
2022/09/28 08:33:33;;;;;;;22.95;4.82;;;32.30;48.60;;;;;;5049343;28;20029;-63
2022/09/28 08:36:01;;;;;;;25.73;4.20;;;32.30;48.40;;;;;;5049807;28;20025;-61
2022/09/28 08:38:30;;;;;;;28.45;4.05;;;32.30;48.10;;;;;;5048005;28;20029;-61
2022/09/28 08:41:17;;;;;;;28.25;4.40;;;32.30;50.10;;;;;;5049650;28;20510;-61
2022/09/28 08:43:58;;;;;;;30.02;4.25;;;32.20;49.50;;;;;;5048850;28;20040;-63
2022/09/28 08:46:30;;;;;;;23.77;4.35;;;32.10;50.20;;;;;;5048600;28;20087;-63
2022/09/28 08:49:11;;;;;;;22.45;4.30;;;32.00;49.70;;;;;;5051117;28;20090;-62
2022/09/28 08:51:53;;;;;;;21.73;4.10;;;32.00;49.50;;;;;;5048097;28;20028;-63
2022/09/28 08:55:09;;;;;;;22.98;4.18;;;32.00;49.80;;;;;;5049192;28;20103;-61
2022/09/28 08:58:05;;;;;;;30.50;4.68;;;32.00;49.70;;;;;;4954840;28;20035;-60
2022/09/28 09:00:46;;;;;;;27.20;4.25;;;32.00;49.60;;;;;;4948192;28;20054;-61
2022/09/28 09:03:19;;;;;;;28.27;5.45;;;31.90;49.60;;;;;;4954128;28;20028;-61
2022/09/28 09:06:10;;;;;;;27.50;5.22;;;31.90;49.40;;;;;;4955791;28;20475;-63
2022/09/28 09:08:46;;;;;;;38.50;7.22;;;31.90;49.70;;;;;;4954934;28;20051;-62
2022/09/28 09:11:33;;;;;;;51.70;10.27;;;31.80;49.20;;;;;;4954953;28;20451;-61
2022/09/28 09:14:18;;;;;;;;;;;31.80;49.30;;;;;;4953165;28;20503;-61
2022/09/28 09:16:44;;;;;;;55.85;12.02;;;31.90;48.70;;;;;;4954025;28;19957;-61
2022/09/28 09:19:34;;;;;;;54.55;11.52;;;31.90;48.60;;;;;;4952989;28;20123;-61
2022/09/28 09:22:26;;;;;;;48.65;10.23;;;31.90;48.20;;;;;;4953334;28;20031;-60
2022/09/28 09:25:22;;;;;;;45.65;9.60;;;31.90;47.70;;;;;;4965675;28;20039;-62
2022/09/28 09:28:23;;;;;;;42.88;9.43;;;31.90;47.60;;;;;;4957205;28;20042;-60
2022/09/28 09:31:34;;;;;;;40.95;9.82;;;32.00;47.40;;;;;;4958474;28;20039;-62
2022/09/28 09:34:19;;;;;;;44.08;8.57;;;32.00;47.90;;;;;;4955960;28;20067;-60
2022/09/28 09:37:02;;;;;;;38.22;8.48;;;31.90;49.70;;;;;;5054970;28;20139;-63
2022/09/28 09:39:46;;;;;;;39.85;7.85;;;31.90;50.30;;;;;;5054257;28;20099;-63
2022/09/28 09:42:41;;;;;;;32.78;7.45;;;31.90;51.60;;;;;;5050848;28;20103;-63
2022/09/28 09:45:23;;;;;;;27.20;7.50;;;31.90;52.80;;;;;;5052507;28;20389;-62
2022/09/28 09:48:05;;;;;;;22.15;7.07;;;31.90;53.50;;;;;;5051616;28;20025;-63
2022/09/28 09:51:17;;;;;;;39.88;7.47;;;31.90;53.90;;;;;;5053157;28;20021;-64
2022/09/28 09:54:12;;;;;;;52.33;7.70;;;31.90;54.80;;;;;;5045565;28;20402;-62
2022/09/28 09:56:48;;;;;;;30.23;7.43;;;31.80;55.10;;;;;;5049435;28;20098;-63
2022/09/28 09:59:22;;;;;;;37.90;6.93;;;31.70;55.50;;;;;;5052415;28;20025;-61
2022/09/28 10:01:50;;;;;;;31.83;6.88;;;31.60;56.20;;;;;;5055307;28;20021;-62
2022/09/28 10:04:25;;;;;;;25.95;6.60;;;31.70;57.00;;;;;;5051381;28;20025;-61
2022/09/28 10:07:00;;;;;;;25.15;6.07;;;31.70;57.30;;;;;;5049497;28;20025;-62
2022/09/28 10:09:33;;;;;;;27.30;6.45;;;31.70;57.90;;;;;;5050712;28;20025;-61
2022/09/28 10:12:00;;;;;;;24.48;7.05;;;31.60;58.50;;;;;;5051230;28;20024;-62
2022/09/28 10:14:27;;;;;;;26.35;6.30;;;31.50;58.90;;;;;;5051239;28;20021;-62
2022/09/28 10:16:56;;;;;;;22.30;6.43;;;31.50;59.00;;;;;;5051317;28;20032;-61
2022/09/28 10:19:34;;;;;;;28.70;6.13;;;31.50;59.20;;;;;;5050664;28;20104;-58
2022/09/28 10:22:03;;;;;;;27.30;6.53;;;31.20;59.90;;;;;;5051579;28;20104;-61
2022/09/28 10:24:32;;;;;;;24.58;6.30;;;31.30;60.30;;;;;;5051200;28;20037;-62
2022/09/28 10:27:17;;;;;;;26.63;6.90;;;31.30;60.60;;;;;;5051031;28;20134;-62
2022/09/28 10:29:52;;;;;;;18.92;6.70;;;31.10;62.40;;;;;;5050682;28;20029;-61
2022/09/28 10:32:27;;;;;;;19.40;6.05;;;31.10;63.70;;;;;;5050547;28;20419;-62
2022/09/28 10:35:25;;;;;;;31.05;7.15;;;31.10;64.90;;;;;;5051919;28;20025;-62
2022/09/28 10:37:55;;;;;;;31.60;7.15;;;31.10;66.10;;;;;;5057043;28;20424;-63
2022/09/28 10:40:45;;;;;;;25.10;6.13;;;31.00;67.30;;;;;;5051389;28;20037;-63
2022/09/28 10:43:15;;;;;;;27.95;6.32;;;31.00;67.90;;;;;;5049446;28;20539;-61
2022/09/28 10:45:41;;;;;;;22.10;5.82;;;31.00;68.70;;;;;;5050184;28;20016;-63
2022/09/28 10:48:18;;;;;;;23.60;5.53;;;31.00;69.30;;;;;;5050478;28;20509;-61
2022/09/28 10:50:58;;;;;;;21.30;5.93;;;31.00;70.30;;;;;;5049543;28;20060;-61
2022/09/28 10:53:24;;;;;;;15.10;5.18;;;31.00;71.70;;;;;;5050620;28;20025;-61
2022/09/28 10:55:59;;;;;;;24.92;5.32;;;31.00;72.90;;;;;;5050574;28;20033;-61
2022/09/28 10:58:39;;;;;;;27.90;5.20;;;30.90;73.50;;;;;;5049968;28;20021;-61
2022/09/28 11:01:10;;;;;;;16.02;5.20;;;30.90;74.70;;;;;;5050361;28;20381;-62
2022/09/28 11:03:55;;;;;;;21.92;4.55;;;30.80;75.20;;;;;;5050197;28;20021;-63
2022/09/28 11:06:37;;;;;;;19.60;4.72;;;30.80;76.80;;;;;;5049898;28;20359;-61
2022/09/28 11:09:23;;;;;;;15.18;3.90;;;30.90;77.60;;;;;;5046876;28;20055;-62
2022/09/28 11:11:49;;;;;;;17.23;4.07;;;30.80;78.40;;;;;;5049531;28;20080;-63
2022/09/28 11:14:37;;;;;;;13.38;3.95;;;30.90;79.20;;;;;;5050243;28;20732;-63
2022/09/28 11:17:25;;;;;;;12.95;4.30;;;30.90;80.20;;;;;;5051118;28;20528;-61
2022/09/28 11:19:52;;;;;;;21.48;3.80;;;30.80;80.40;;;;;;5050145;28;20021;-62
2022/09/28 11:22:21;;;;;;;11.73;3.95;;;30.80;81.10;;;;;;5066118;28;20032;-62
2022/09/28 11:24:48;;;;;;;13.25;3.67;;;30.80;81.80;;;;;;5051073;28;20503;-62
2022/09/28 11:27:21;;;;;;;12.57;3.80;;;30.70;83.00;;;;;;5054522;28;20362;-62
2022/09/28 11:29:58;;;;;;;16.40;3.63;;;30.70;84.10;;;;;;5049061;28;20032;-62
2022/09/28 11:32:44;;;;;;;12.45;3.25;;;30.70;85.00;;;;;;5059744;28;20032;-63
2022/09/28 11:35:25;;;;;;;13.45;4.07;;;30.60;86.00;;;;;;5048813;28;20564;-61
2022/09/28 11:38:03;;;;;;;13.38;3.60;;;30.60;86.90;;;;;;5049422;28;20017;-61
2022/09/28 11:40:59;;;;;;;12.63;3.47;;;30.60;87.60;;;;;;5049671;28;20021;-62
2022/09/28 11:43:46;;;;;;;14.45;3.70;;;30.50;88.50;;;;;;5013263;28;20510;-62
2022/09/28 11:46:18;;;;;;;19.88;4.78;;;30.50;89.20;;;;;;5048245;28;20025;-61
2022/09/28 11:48:54;;;;;;;12.60;4.07;;;30.50;90.00;;;;;;5046765;28;20033;-61
2022/09/28 11:51:30;;;;;;;12.25;4.15;;;30.50;90.80;;;;;;5049366;28;20028;-62
2022/09/28 11:54:32;;;;;;;10.90;4.13;;;30.50;91.10;;;;;;5050960;28;20493;-60
2022/09/28 11:57:03;;;;;;;17.45;4.88;;;30.50;91.50;;;;;;5036690;28;20094;-62
2022/09/28 12:00:00;;;;;;;14.00;4.43;;;30.30;91.90;;;;;;5049470;28;20021;-61
2022/09/28 12:02:45;;;;;;;11.55;4.22;;;30.20;92.40;;;;;;5046319;28;20482;-61
2022/09/28 12:05:24;;;;;;;13.88;4.22;;;30.20;92.60;;;;;;5050864;28;20032;-61
2022/09/28 12:07:59;;;;;;;17.58;3.63;;;30.10;93.10;;;;;;5050152;28;20564;-61
2022/09/28 12:10:47;;;;;;;13.25;3.03;;;30.10;93.50;;;;;;5048566;28;20517;-62
2022/09/28 12:13:21;;;;;;;11.55;3.20;;;30.00;93.40;;;;;;5048512;28;20017;-63
2022/09/28 12:16:04;;;;;;;7.13;3.00;;;30.00;93.60;;;;;;5050069;28;20480;-62
2022/09/28 12:19:21;;;;;;;16.30;3.42;;;30.00;93.70;;;;;;5057398;28;20028;-61
2022/09/28 12:21:54;;;;;;;9.68;3.17;;;29.90;93.60;;;;;;5010097;28;20100;-63
2022/09/28 12:24:57;;;;;;;13.52;3.33;;;30.00;93.60;;;;;;5012354;28;20406;-63
2022/09/28 12:27:27;;;;;;;8.95;3.20;;;29.90;93.70;;;;;;5004604;28;20042;-63
2022/09/28 12:30:03;;;;;;;11.68;3.45;;;29.80;93.80;;;;;;5010177;28;20120;-63
2022/09/28 12:33:04;;;;;;;11.27;3.13;;;29.80;94.00;;;;;;5012680;28;20037;-64
2022/09/28 12:36:01;;;;;;;17.20;3.70;;;29.80;93.90;;;;;;5007850;28;20034;-63
2022/09/28 12:38:58;;;;;;;15.38;3.22;;;29.80;94.30;;;;;;5014153;28;20036;-61
2022/09/28 12:41:38;;;;;;;14.43;3.10;;;29.70;94.60;;;;;;5007519;28;20124;-62
2022/09/28 12:44:30;;;;;;;15.55;3.15;;;29.70;95.00;;;;;;5006548;28;20113;-61
2022/09/28 12:47:27;;;;;;;14.63;3.20;;;29.60;95.10;;;;;;5011485;28;20025;-61
2022/09/28 12:50:02;;;;;;;12.60;3.00;;;29.60;95.30;;;;;;4994968;28;20037;-63
2022/09/28 12:52:36;;;;;;;14.48;4.40;;;29.60;95.50;;;;;;5006357;28;20104;-62
2022/09/28 12:55:05;;;;;;;9.23;3.90;;;29.60;96.20;;;;;;5008436;28;20065;-61
2022/09/28 12:58:13;;;;;;;25.33;3.90;;;29.60;96.30;;;;;;5022251;28;20060;-61
2022/09/28 13:01:12;;;;;;;14.73;3.85;;;29.50;96.60;;;;;;5048199;28;20444;-61
2022/09/28 13:03:46;;;;;;;11.45;3.47;;;29.40;97.00;;;;;;5047609;28;20037;-61
2022/09/28 13:06:19;;;;;;;14.48;3.30;;;29.40;97.50;;;;;;5047276;28;20027;-61
2022/09/28 13:09:09;;;;;;;15.60;3.03;;;29.30;97.90;;;;;;5046848;28;20029;-62
2022/09/28 13:12:03;;;;;;;11.10;2.80;;;29.30;98.30;;;;;;5046347;28;20025;-61
2022/09/28 13:14:49;;;;;;;19.58;3.13;;;29.20;98.30;;;;;;5052660;28;20422;-62
2022/09/28 13:17:15;;;;;;;15.87;2.87;;;29.10;98.50;;;;;;5048121;28;20033;-62
2022/09/28 13:20:17;;;;;;;13.30;2.58;;;29.10;98.40;;;;;;5048089;28;20025;-63
2022/09/28 13:22:50;;;;;;;13.95;3.08;;;29.10;98.70;;;;;;5033691;28;20043;-62
2022/09/28 13:25:19;;;;;;;9.32;2.72;;;29.00;98.60;;;;;;5048809;28;20028;-61